Time;durP1;ratioP1;P1;durP2;ratioP2;P2;SDS_P1;SDS_P2;PMS_P1;PMS_P2;Temp;Humidity;BMP_temperature;BMP_pressure;BME280_temperature;BME280_humidity;BME280_pressure;Samples;Min_cycle;Max_cycle;Signal;HPM_P1;HPM_P2
2023/11/07 00:00:14;;;;;;;7.72;1.85;;;9.90;99.90;;;;;;5028083;28;20022;-41
2023/11/07 00:02:41;;;;;;;7.60;2.35;;;9.90;99.90;;;;;;5025972;28;20022;-42
2023/11/07 00:05:09;;;;;;;6.20;1.60;;;9.90;99.90;;;;;;5022530;28;20064;-41
2023/11/07 00:07:36;;;;;;;7.47;2.03;;;9.90;99.90;;;;;;5031049;28;20033;-40
2023/11/07 00:10:02;;;;;;;9.57;2.03;;;9.90;99.90;;;;;;5031901;28;20025;-39
2023/11/07 00:12:27;;;;;;;8.23;2.08;;;9.90;99.90;;;;;;5027791;28;20025;-38
2023/11/07 00:14:53;;;;;;;3.83;2.25;;;9.90;99.90;;;;;;5029435;28;20064;-39
2023/11/07 00:17:20;;;;;;;8.85;2.55;;;9.90;99.90;;;;;;5026546;28;20025;-61
2023/11/07 00:19:46;;;;;;;12.77;1.80;;;9.90;99.90;;;;;;5036026;28;20382;-47
2023/11/07 00:22:13;;;;;;;1.52;1.42;;;9.90;99.90;;;;;;5036092;28;20033;-42
2023/11/07 00:24:39;;;;;;;6.43;1.65;;;9.90;99.90;;;;;;5035452;28;20551;-41
2023/11/07 00:27:05;;;;;;;6.18;1.83;;;10.00;99.90;;;;;;5031628;28;20029;-41
2023/11/07 00:29:31;;;;;;;10.27;3.42;;;10.00;99.90;;;;;;5035473;28;20033;-41
2023/11/07 00:31:57;;;;;;;4.45;2.30;;;10.10;99.90;;;;;;5033333;28;20535;-40
2023/11/07 00:34:23;;;;;;;3.95;1.80;;;10.00;99.90;;;;;;5035041;28;20045;-41
2023/11/07 00:36:49;;;;;;;15.43;2.95;;;10.10;99.90;;;;;;5034321;28;20025;-43
2023/11/07 00:39:16;;;;;;;3.90;1.52;;;10.10;99.90;;;;;;5028432;28;20021;-42
2023/11/07 00:41:42;;;;;;;3.25;2.13;;;10.10;99.90;;;;;;5025615;28;20101;-65
2023/11/07 00:44:08;;;;;;;6.07;2.00;;;10.00;99.90;;;;;;5030046;28;20032;-55
2023/11/07 00:46:33;;;;;;;10.63;2.00;;;10.10;99.90;;;;;;5031536;28;20424;-54
2023/11/07 00:48:59;;;;;;;5.47;1.95;;;10.10;99.90;;;;;;5032319;28;20080;-54
2023/11/07 00:51:25;;;;;;;9.77;2.08;;;10.10;99.90;;;;;;5030965;28;20037;-41
2023/11/07 00:53:52;;;;;;;7.07;1.92;;;10.10;99.90;;;;;;5020143;28;20034;-40
2023/11/07 00:56:18;;;;;;;4.13;1.60;;;10.10;99.90;;;;;;5035422;28;20498;-40
2023/11/07 00:58:44;;;;;;;2.97;1.38;;;10.20;99.90;;;;;;5033209;28;20028;-56
2023/11/07 01:01:09;;;;;;;15.65;1.73;;;10.20;99.90;;;;;;5024901;28;20056;-54
2023/11/07 01:03:35;;;;;;;8.23;1.42;;;10.20;99.90;;;;;;5035414;28;20029;-54
2023/11/07 01:06:01;;;;;;;4.60;1.77;;;10.20;99.90;;;;;;5022743;28;20060;-54
2023/11/07 01:08:27;;;;;;;6.88;2.17;;;10.20;99.90;;;;;;5034570;28;20053;-42
2023/11/07 01:10:53;;;;;;;5.22;1.85;;;10.20;99.90;;;;;;5035035;28;20037;-39
2023/11/07 01:13:19;;;;;;;2.97;1.25;;;10.10;99.90;;;;;;5023090;28;20040;-51
2023/11/07 01:15:45;;;;;;;8.32;2.33;;;10.10;99.90;;;;;;5031706;28;20030;-40
2023/11/07 01:18:11;;;;;;;6.70;1.80;;;10.10;99.90;;;;;;5032878;28;20032;-41
2023/11/07 01:20:37;;;;;;;3.88;1.73;;;10.20;99.90;;;;;;5032208;28;20079;-41
2023/11/07 01:23:03;;;;;;;6.00;1.25;;;10.20;99.90;;;;;;5033016;28;20544;-40
2023/11/07 01:25:28;;;;;;;9.57;1.80;;;10.20;99.90;;;;;;5034553;28;20497;-40
2023/11/07 01:27:55;;;;;;;4.43;1.20;;;10.20;99.90;;;;;;5032917;28;20517;-40
2023/11/07 01:30:21;;;;;;;5.95;1.67;;;10.30;99.90;;;;;;5028393;28;20037;-41
2023/11/07 01:32:49;;;;;;;7.25;2.13;;;10.30;99.90;;;;;;5016403;28;20510;-48
2023/11/07 01:35:16;;;;;;;3.20;1.23;;;10.30;99.90;;;;;;5031648;28;20494;-41
2023/11/07 01:37:41;;;;;;;6.45;1.52;;;10.30;99.90;;;;;;5034218;28;20474;-40
2023/11/07 01:40:09;;;;;;;5.50;1.60;;;10.40;99.90;;;;;;5030612;28;20024;-40
2023/11/07 01:42:44;;;;;;;5.68;2.25;;;10.40;99.90;;;;;;5028093;28;20061;-40
2023/11/07 01:45:10;;;;;;;4.47;1.95;;;10.40;99.90;;;;;;5034570;28;20390;-44
2023/11/07 01:47:38;;;;;;;9.25;2.15;;;10.40;99.90;;;;;;5024076;28;20033;-40
2023/11/07 01:50:14;;;;;;;;;;;10.40;99.90;;;;;;5034034;28;20033;-40
2023/11/07 01:52:40;;;;;;;9.68;1.67;;;10.40;99.90;;;;;;5024372;28;20416;-40
2023/11/07 01:55:08;;;;;;;5.80;1.45;;;10.40;99.90;;;;;;5023918;28;20033;-40
2023/11/07 01:57:38;;;;;;;6.40;1.45;;;10.40;99.90;;;;;;5024962;28;20030;-40
2023/11/07 02:00:11;;;;;;;6.07;1.40;;;10.40;99.90;;;;;;5013290;28;20076;-41
2023/11/07 02:02:41;;;;;;;4.88;1.67;;;10.40;99.90;;;;;;5016838;28;20029;-39
2023/11/07 02:05:09;;;;;;;5.72;1.52;;;10.40;99.90;;;;;;5027996;28;20205;-40
2023/11/07 02:07:39;;;;;;;3.60;1.67;;;10.40;99.90;;;;;;5037889;28;20116;-40
2023/11/07 02:10:11;;;;;;;3.53;1.52;;;10.40;99.90;;;;;;5034486;28;20482;-44
2023/11/07 02:12:37;;;;;;;9.15;1.85;;;10.40;99.90;;;;;;5033934;28;20031;-41
2023/11/07 02:15:26;;;;;;;4.95;1.58;;;10.40;99.90;;;;;;5033860;28;20128;-42
2023/11/07 02:17:52;;;;;;;7.75;1.50;;;10.40;99.90;;;;;;5033556;28;20414;-41
2023/11/07 02:20:18;;;;;;;3.40;1.55;;;10.40;99.90;;;;;;5032375;28;20053;-39
2023/11/07 02:22:51;;;;;;;4.32;1.40;;;10.40;99.90;;;;;;5033003;28;20445;-41
2023/11/07 02:25:18;;;;;;;7.25;2.08;;;10.30;99.90;;;;;;5032051;28;20478;-43
2023/11/07 02:27:47;;;;;;;6.75;2.42;;;10.30;99.90;;;;;;5033937;28;20033;-41
2023/11/07 02:30:13;;;;;;;3.45;1.85;;;10.30;99.90;;;;;;5033790;28;20109;-40
2023/11/07 02:32:43;;;;;;;5.22;1.63;;;10.30;99.90;;;;;;5033484;28;20083;-41
2023/11/07 02:35:13;;;;;;;12.88;1.60;;;10.30;99.90;;;;;;5032696;28;20057;-43
2023/11/07 02:37:40;;;;;;;6.03;2.03;;;10.30;99.90;;;;;;5031375;28;20022;-41
2023/11/07 02:40:09;;;;;;;5.32;1.42;;;10.30;99.90;;;;;;5033535;28;20520;-40
2023/11/07 02:42:35;;;;;;;9.70;2.33;;;10.30;99.90;;;;;;5031990;28;20466;-55
2023/11/07 02:45:02;;;;;;;9.65;1.80;;;10.30;99.90;;;;;;5033161;28;20052;-54
2023/11/07 02:47:29;;;;;;;8.67;2.00;;;10.30;99.90;;;;;;5033399;28;20022;-54
2023/11/07 02:49:55;;;;;;;4.03;2.10;;;10.30;99.90;;;;;;5033671;28;20478;-54
2023/11/07 02:52:20;;;;;;;4.97;1.42;;;10.30;99.90;;;;;;5031145;28;20474;-54
2023/11/07 02:54:47;;;;;;;6.90;1.60;;;10.30;99.90;;;;;;5033216;28;20345;-55
2023/11/07 02:57:12;;;;;;;3.80;1.48;;;10.30;99.90;;;;;;5032902;28;20548;-54
2023/11/07 02:59:39;;;;;;;3.10;1.33;;;10.40;99.90;;;;;;5033229;28;20026;-55
2023/11/07 03:02:04;;;;;;;4.50;1.42;;;10.40;99.90;;;;;;5028129;28;20507;-54
2023/11/07 03:04:30;;;;;;;4.80;1.55;;;10.40;99.90;;;;;;5029069;28;20029;-53
2023/11/07 03:06:56;;;;;;;8.20;2.75;;;10.40;99.90;;;;;;5027915;28;20021;-41
2023/11/07 03:09:21;;;;;;;4.93;1.73;;;10.40;99.90;;;;;;5031416;28;20025;-42
2023/11/07 03:11:47;;;;;;;10.20;3.13;;;10.40;99.90;;;;;;5027146;28;20022;-41
2023/11/07 03:14:13;;;;;;;3.80;1.45;;;10.40;99.90;;;;;;5032570;28;20032;-39
2023/11/07 03:16:40;;;;;;;7.93;1.80;;;10.30;99.90;;;;;;5030289;28;20106;-43
2023/11/07 03:19:07;;;;;;;5.47;2.40;;;10.20;99.90;;;;;;5029836;28;20053;-40
2023/11/07 03:21:36;;;;;;;9.70;1.92;;;10.20;99.90;;;;;;5029435;28;20482;-40
2023/11/07 03:24:08;;;;;;;7.43;2.00;;;10.20;99.90;;;;;;5016132;28;20041;-53
2023/11/07 03:26:34;;;;;;;7.75;2.10;;;10.20;99.90;;;;;;5013471;28;20030;-53
2023/11/07 03:29:00;;;;;;;3.95;2.33;;;10.20;99.90;;;;;;5024310;28;20029;-51
2023/11/07 03:31:26;;;;;;;3.35;1.55;;;10.20;99.90;;;;;;5032553;28;20033;-51
2023/11/07 03:33:51;;;;;;;3.13;1.83;;;10.10;99.90;;;;;;5022222;28;20121;-54
2023/11/07 03:36:17;;;;;;;10.02;2.33;;;10.20;99.90;;;;;;5021652;28;20021;-69
2023/11/07 03:38:43;;;;;;;12.10;2.42;;;10.10;99.90;;;;;;5016596;28;20068;-61
2023/11/07 03:41:12;;;;;;;5.10;1.83;;;10.20;99.90;;;;;;5027255;28;20047;-55
2023/11/07 03:43:38;;;;;;;11.25;1.85;;;10.10;99.90;;;;;;5016550;28;20240;-52
2023/11/07 03:46:05;;;;;;;3.40;1.42;;;10.20;99.90;;;;;;5027115;28;20069;-50
2023/11/07 03:48:31;;;;;;;4.13;1.55;;;10.10;99.90;;;;;;5016407;28;20060;-53
2023/11/07 03:50:57;;;;;;;4.15;1.80;;;10.20;99.90;;;;;;5021578;28;20064;-54
2023/11/07 03:53:22;;;;;;;7.88;1.90;;;10.20;99.90;;;;;;5028864;28;20026;-55
2023/11/07 03:55:48;;;;;;;1.70;1.33;;;10.10;99.90;;;;;;5020910;28;20057;-55
2023/11/07 03:58:14;;;;;;;5.68;2.03;;;10.10;99.90;;;;;;5026067;28;20092;-54
2023/11/07 04:00:40;;;;;;;6.07;1.90;;;10.10;99.90;;;;;;5031031;28;20029;-62
2023/11/07 04:03:06;;;;;;;7.55;2.42;;;10.10;99.90;;;;;;5036166;28;20501;-54
2023/11/07 04:05:32;;;;;;;3.35;1.52;;;10.10;99.90;;;;;;5024698;28;20030;-55
2023/11/07 04:07:59;;;;;;;11.13;2.03;;;10.10;99.90;;;;;;5032485;28;20052;-55
2023/11/07 04:10:25;;;;;;;2.65;1.73;;;10.10;99.90;;;;;;5021055;28;20033;-51
2023/11/07 04:12:51;;;;;;;5.65;1.60;;;10.10;99.90;;;;;;5017566;28;20041;-55
2023/11/07 04:15:17;;;;;;;1.30;1.20;;;10.10;99.90;;;;;;5030693;28;20025;-40
2023/11/07 04:17:42;;;;;;;3.50;1.50;;;10.10;99.90;;;;;;5025422;28;20030;-39
2023/11/07 04:20:12;;;;;;;5.97;1.80;;;10.10;99.90;;;;;;5024212;28;20026;-40
2023/11/07 04:22:38;;;;;;;7.45;1.52;;;10.10;99.90;;;;;;5025654;28;20040;-40
2023/11/07 04:25:06;;;;;;;7.80;1.33;;;10.10;99.90;;;;;;5029035;28;20030;-41
2023/11/07 04:27:32;;;;;;;2.88;1.42;;;10.10;99.90;;;;;;5026200;28;20496;-40
2023/11/07 04:29:58;;;;;;;7.68;1.65;;;10.00;99.90;;;;;;5018660;28;20526;-40
2023/11/07 04:32:25;;;;;;;1.98;1.40;;;10.00;99.90;;;;;;5036240;28;20026;-56
2023/11/07 04:34:52;;;;;;;5.25;1.60;;;9.90;99.90;;;;;;5033827;28;20052;-41
2023/11/07 04:37:18;;;;;;;3.30;1.83;;;9.80;99.90;;;;;;5027891;28;20030;-40
2023/11/07 04:39:43;;;;;;;2.30;1.40;;;9.80;99.90;;;;;;5030943;28;20083;-41
2023/11/07 04:42:09;;;;;;;5.20;1.20;;;9.80;99.90;;;;;;5030880;28;20080;-40
2023/11/07 04:44:35;;;;;;;2.85;1.48;;;9.80;99.90;;;;;;5027779;28;20473;-44
2023/11/07 04:47:02;;;;;;;4.80;2.10;;;9.80;99.90;;;;;;5033876;28;20083;-40
2023/11/07 04:49:29;;;;;;;5.75;2.42;;;9.70;99.90;;;;;;5034845;28;20030;-41
2023/11/07 04:51:56;;;;;;;4.03;2.13;;;9.70;99.90;;;;;;5035246;28;20029;-53
2023/11/07 04:54:24;;;;;;;4.35;1.45;;;9.60;99.90;;;;;;5032779;28;20037;-55
2023/11/07 04:56:50;;;;;;;2.30;0.95;;;9.60;99.90;;;;;;5023954;28;20513;-54
2023/11/07 04:59:15;;;;;;;3.25;1.48;;;9.60;99.90;;;;;;5035571;28;20017;-54
2023/11/07 05:01:45;;;;;;;10.27;2.47;;;9.60;99.90;;;;;;5031213;28;20022;-53
2023/11/07 05:04:10;;;;;;;1.50;1.40;;;9.60;99.90;;;;;;5015523;28;20065;-53
2023/11/07 05:06:36;;;;;;;5.70;2.60;;;9.50;99.90;;;;;;5018062;28;20074;-54
2023/11/07 05:09:07;;;;;;;5.13;2.10;;;9.50;99.90;;;;;;5023786;28;20429;-55
2023/11/07 05:11:33;;;;;;;4.43;1.75;;;9.40;99.90;;;;;;5031739;28;20067;-54
2023/11/07 05:13:59;;;;;;;4.93;1.67;;;9.40;99.90;;;;;;5035050;28;20025;-53
2023/11/07 05:16:24;;;;;;;4.22;1.63;;;9.40;99.90;;;;;;5035040;28;20470;-54
2023/11/07 05:18:50;;;;;;;5.97;1.85;;;9.30;99.90;;;;;;5032318;28;20022;-52
2023/11/07 05:21:16;;;;;;;5.07;2.38;;;9.30;99.90;;;;;;5016602;28;20052;-54
2023/11/07 05:23:43;;;;;;;2.13;1.75;;;9.30;99.90;;;;;;5028355;28;20493;-55
2023/11/07 05:26:09;;;;;;;2.85;1.95;;;9.30;99.90;;;;;;5017472;28;20092;-54
2023/11/07 05:28:37;;;;;;;8.57;2.38;;;9.30;99.90;;;;;;5027831;28;20022;-56
2023/11/07 05:31:03;;;;;;;3.20;2.00;;;9.30;99.90;;;;;;5031213;28;20039;-57
2023/11/07 05:33:29;;;;;;;7.32;2.05;;;9.30;99.90;;;;;;5021446;28;20291;-53
2023/11/07 05:35:55;;;;;;;13.57;2.50;;;9.20;99.90;;;;;;5028315;28;20026;-55
2023/11/07 05:38:22;;;;;;;6.13;2.70;;;9.20;99.90;;;;;;5015231;28;20050;-55
2023/11/07 05:40:48;;;;;;;6.55;2.47;;;9.20;99.90;;;;;;5031032;28;20420;-53
2023/11/07 05:43:14;;;;;;;4.38;1.90;;;9.20;99.90;;;;;;5034566;28;20029;-52
2023/11/07 05:45:40;;;;;;;2.78;1.83;;;9.20;99.90;;;;;;5020472;28;20509;-55
2023/11/07 05:48:05;;;;;;;6.43;1.90;;;9.20;99.90;;;;;;5025526;28;20030;-53
2023/11/07 05:50:31;;;;;;;11.82;2.47;;;9.20;99.90;;;;;;5032615;28;20028;-55
2023/11/07 05:52:57;;;;;;;6.50;2.63;;;9.20;99.90;;;;;;5024363;28;20053;-54
2023/11/07 05:55:22;;;;;;;6.10;2.65;;;9.20;99.90;;;;;;5026048;28;20025;-55
2023/11/07 05:57:48;;;;;;;8.98;2.47;;;9.20;99.90;;;;;;5021682;28;20037;-55
2023/11/07 06:00:14;;;;;;;4.35;2.10;;;9.10;99.90;;;;;;5020444;28;20101;-44
2023/11/07 06:02:40;;;;;;;5.20;2.50;;;9.20;99.90;;;;;;5024440;28;20033;-41
2023/11/07 06:05:06;;;;;;;6.15;2.53;;;9.10;99.90;;;;;;5016035;28;20430;-42
2023/11/07 06:07:33;;;;;;;10.23;2.53;;;9.10;99.90;;;;;;5028111;28;20112;-41
2023/11/07 06:10:00;;;;;;;23.33;2.78;;;9.10;99.90;;;;;;5029202;28;20026;-42
2023/11/07 06:12:26;;;;;;;15.27;2.33;;;9.10;99.90;;;;;;5033392;28;20438;-50
2023/11/07 06:14:52;;;;;;;3.60;2.25;;;9.10;99.90;;;;;;5031606;28;20041;-41
2023/11/07 06:17:17;;;;;;;5.55;2.22;;;9.00;99.90;;;;;;5027954;28;20547;-41
2023/11/07 06:19:44;;;;;;;5.43;2.75;;;9.00;99.90;;;;;;5021270;28;20453;-51
2023/11/07 06:22:10;;;;;;;2.65;2.22;;;9.10;99.90;;;;;;5030778;28;20021;-42
2023/11/07 06:24:36;;;;;;;10.77;2.78;;;9.10;99.90;;;;;;5014719;28;20471;-52
2023/11/07 06:27:02;;;;;;;9.15;2.88;;;9.10;99.90;;;;;;5028708;28;20037;-43
2023/11/07 06:29:27;;;;;;;6.07;2.70;;;9.00;99.90;;;;;;5026106;28;20095;-40
2023/11/07 06:31:53;;;;;;;5.47;2.55;;;9.00;99.90;;;;;;5027123;28;20555;-41
2023/11/07 06:34:19;;;;;;;5.82;2.40;;;9.00;99.90;;;;;;5032520;28;20123;-46
2023/11/07 06:36:48;;;;;;;13.20;2.90;;;9.00;99.90;;;;;;5032084;28;20032;-41
2023/11/07 06:39:15;;;;;;;8.93;2.50;;;9.00;99.90;;;;;;5022256;28;20461;-41
2023/11/07 06:41:41;;;;;;;4.00;2.22;;;9.00;99.90;;;;;;5031399;28;20022;-40
2023/11/07 06:44:10;;;;;;;10.77;3.08;;;9.00;99.90;;;;;;5032332;28;20409;-41
2023/11/07 06:46:39;;;;;;;6.35;3.05;;;9.00;99.90;;;;;;5031301;28;20033;-43
2023/11/07 06:49:04;;;;;;;3.42;2.40;;;9.00;99.90;;;;;;5033231;28;20033;-41
2023/11/07 06:51:30;;;;;;;5.82;2.88;;;9.00;99.90;;;;;;5033831;28;20026;-42
2023/11/07 06:53:55;;;;;;;11.63;4.07;;;9.00;99.90;;;;;;5031471;28;20025;-44
2023/11/07 06:56:21;;;;;;;7.07;3.38;;;9.00;99.90;;;;;;5026132;28;20425;-52
2023/11/07 06:58:47;;;;;;;10.82;2.45;;;9.10;99.90;;;;;;5032583;28;20067;-41
2023/11/07 07:01:14;;;;;;;7.22;2.97;;;9.20;99.90;;;;;;5031857;28;20014;-42
2023/11/07 07:03:40;;;;;;;9.57;3.53;;;9.20;99.90;;;;;;5030685;28;20026;-41
2023/11/07 07:06:06;;;;;;;9.38;3.05;;;9.20;99.90;;;;;;5025639;28;20431;-42
2023/11/07 07:08:32;;;;;;;4.65;2.63;;;9.20;99.90;;;;;;5013744;28;20041;-43
2023/11/07 07:10:58;;;;;;;3.55;2.55;;;9.20;99.90;;;;;;5029186;28;20029;-41
2023/11/07 07:13:25;;;;;;;7.00;3.33;;;9.20;99.90;;;;;;5021714;28;20055;-41
2023/11/07 07:15:51;;;;;;;4.20;2.63;;;9.30;99.90;;;;;;5031117;28;20030;-41
2023/11/07 07:18:22;;;;;;;4.43;2.92;;;9.30;99.90;;;;;;5032854;28;20030;-47
2023/11/07 07:20:50;;;;;;;4.15;2.92;;;9.20;99.90;;;;;;5022337;28;20022;-45
2023/11/07 07:23:16;;;;;;;6.22;3.40;;;9.20;99.90;;;;;;5030067;28;20497;-45
2023/11/07 07:25:43;;;;;;;7.30;3.08;;;9.20;99.90;;;;;;5030225;28;20022;-49
2023/11/07 07:28:09;;;;;;;8.47;3.17;;;9.20;99.90;;;;;;5023422;28;20044;-42
2023/11/07 07:30:37;;;;;;;8.15;3.22;;;9.30;99.90;;;;;;5032173;28;20276;-42
2023/11/07 07:33:06;;;;;;;6.40;3.10;;;9.30;99.90;;;;;;5031422;28;20497;-42
2023/11/07 07:35:33;;;;;;;10.93;3.92;;;9.30;99.90;;;;;;5023296;28;20384;-41
2023/11/07 07:38:02;;;;;;;11.73;3.42;;;9.30;99.90;;;;;;5013062;28;20022;-41
2023/11/07 07:40:29;;;;;;;12.45;3.63;;;9.30;99.90;;;;;;5027523;28;20076;-45
2023/11/07 07:42:58;;;;;;;12.27;3.80;;;9.30;99.90;;;;;;5016656;28;20018;-40
2023/11/07 07:45:26;;;;;;;6.57;3.55;;;9.30;99.90;;;;;;5032505;28;20482;-42
2023/11/07 07:47:52;;;;;;;6.22;3.95;;;9.30;99.90;;;;;;5031901;28;20497;-55
2023/11/07 07:50:18;;;;;;;6.30;3.28;;;9.30;99.90;;;;;;5031254;28;20498;-55
2023/11/07 07:52:45;;;;;;;9.13;3.70;;;9.30;99.90;;;;;;5032143;28;20501;-56
2023/11/07 07:55:11;;;;;;;9.57;3.95;;;9.30;99.90;;;;;;5032080;28;20462;-48
2023/11/07 07:57:38;;;;;;;10.88;4.05;;;9.30;99.90;;;;;;5028956;28;20026;-51
2023/11/07 08:00:14;;;;;;;9.27;3.63;;;9.40;99.90;;;;;;5030964;28;20112;-53
2023/11/07 08:02:45;;;;;;;7.78;3.83;;;9.40;99.90;;;;;;5025582;28;20044;-55
2023/11/07 08:05:16;;;;;;;7.32;3.42;;;9.40;99.90;;;;;;5032405;28;20034;-54
2023/11/07 08:07:48;;;;;;;4.80;3.50;;;9.40;99.90;;;;;;5024984;28;20026;-55
2023/11/07 08:10:17;;;;;;;9.45;4.65;;;9.50;99.90;;;;;;5013577;28;20050;-54
2023/11/07 08:12:43;;;;;;;6.78;3.58;;;9.60;99.90;;;;;;5019252;28;20064;-54
2023/11/07 08:15:11;;;;;;;8.20;4.18;;;9.50;99.90;;;;;;5030761;28;20398;-55
2023/11/07 08:17:37;;;;;;;9.47;3.80;;;9.60;99.90;;;;;;5031003;28;20120;-52
2023/11/07 08:20:15;;;;;;;7.68;4.18;;;9.70;99.90;;;;;;5028198;28;20025;-54
2023/11/07 08:22:42;;;;;;;6.63;3.28;;;9.60;99.90;;;;;;5017151;28;20087;-53
2023/11/07 08:25:10;;;;;;;6.97;3.97;;;9.60;99.90;;;;;;5031753;28;20564;-51
2023/11/07 08:27:40;;;;;;;5.10;3.45;;;9.60;99.90;;;;;;5030664;28;20029;-55
2023/11/07 08:30:12;;;;;;;5.85;3.72;;;9.60;99.90;;;;;;5031508;28;20040;-52
2023/11/07 08:32:42;;;;;;;6.55;2.90;;;9.60;99.90;;;;;;5032036;28;20504;-53
2023/11/07 08:35:10;;;;;;;4.80;3.42;;;9.70;99.90;;;;;;5030899;28;20042;-52
2023/11/07 08:37:36;;;;;;;;;;;9.80;99.90;;;;;;5025128;28;20037;-51
2023/11/07 08:40:06;;;;;;;5.00;2.85;;;9.80;99.90;;;;;;5025197;28;20340;-53
2023/11/07 08:42:32;;;;;;;7.07;3.13;;;9.80;99.90;;;;;;5043800;28;20025;-54
2023/11/07 08:44:59;;;;;;;5.40;3.22;;;9.80;99.90;;;;;;5049007;28;20479;-54
2023/11/07 08:47:28;;;;;;;4.13;2.80;;;9.80;99.90;;;;;;5035359;28;20026;-54
2023/11/07 08:49:57;;;;;;;2.60;2.40;;;9.90;99.90;;;;;;5035764;28;20764;-54
2023/11/07 08:52:24;;;;;;;4.55;3.20;;;9.90;99.90;;;;;;5028603;28;20484;-55
2023/11/07 08:54:51;;;;;;;3.83;2.38;;;10.00;99.90;;;;;;5025198;28;20410;-64
2023/11/07 08:57:17;;;;;;;6.25;2.45;;;10.00;99.90;;;;;;5029309;28;20026;-69
2023/11/07 08:59:44;;;;;;;10.40;2.45;;;10.10;99.90;;;;;;5016117;28;20036;-54
2023/11/07 09:02:11;;;;;;;7.97;2.73;;;10.10;99.90;;;;;;5014939;28;20559;-54
2023/11/07 09:04:37;;;;;;;4.55;2.65;;;10.20;99.90;;;;;;5027812;28;20274;-54
2023/11/07 09:07:04;;;;;;;3.65;2.15;;;10.30;99.90;;;;;;5033755;28;20100;-57
2023/11/07 09:09:30;;;;;;;4.68;2.72;;;10.30;99.90;;;;;;5020509;28;20121;-55
2023/11/07 09:11:56;;;;;;;3.75;2.47;;;10.50;99.90;;;;;;5015865;28;20411;-53
2023/11/07 09:14:21;;;;;;;6.32;2.42;;;10.50;99.90;;;;;;5026098;28;20022;-55
2023/11/07 09:16:48;;;;;;;3.97;1.65;;;10.60;99.90;;;;;;5023225;28;20359;-55
2023/11/07 09:19:14;;;;;;;8.23;2.58;;;10.70;99.90;;;;;;5016225;28;20017;-55
2023/11/07 09:21:40;;;;;;;3.42;1.80;;;10.70;99.90;;;;;;5028274;28;20029;-48
2023/11/07 09:24:06;;;;;;;2.47;1.52;;;10.70;99.90;;;;;;5033169;28;20105;-53
2023/11/07 09:26:31;;;;;;;3.60;1.35;;;10.70;99.90;;;;;;5034337;28;20156;-52
2023/11/07 09:28:58;;;;;;;3.38;1.98;;;10.70;99.90;;;;;;5047471;28;20031;-53
2023/11/07 09:31:24;;;;;;;3.78;1.80;;;10.70;99.90;;;;;;5043200;28;20030;-53
2023/11/07 09:33:50;;;;;;;2.33;2.00;;;10.80;99.90;;;;;;5034583;28;20038;-54
2023/11/07 09:36:16;;;;;;;2.00;1.65;;;10.80;99.90;;;;;;5035064;28;20111;-56
2023/11/07 09:38:42;;;;;;;3.50;1.17;;;10.90;99.90;;;;;;5035763;28;20459;-65
2023/11/07 09:41:08;;;;;;;4.35;1.98;;;10.90;99.90;;;;;;5034991;28;20025;-51
2023/11/07 09:43:34;;;;;;;5.88;1.90;;;11.00;99.90;;;;;;5028415;28;20407;-51
2023/11/07 09:46:02;;;;;;;1.75;1.02;;;11.10;99.90;;;;;;5018521;28;20034;-54
2023/11/07 09:48:28;;;;;;;5.63;1.27;;;11.10;99.90;;;;;;5025702;28;20026;-52
2023/11/07 09:50:56;;;;;;;6.63;1.27;;;11.00;99.90;;;;;;5032117;28;20029;-53
2023/11/07 09:53:23;;;;;;;5.68;1.38;;;11.10;99.90;;;;;;5020767;28;20080;-59
2023/11/07 09:55:51;;;;;;;1.40;1.30;;;11.10;99.90;;;;;;5025126;28;20079;-57
2023/11/07 09:58:28;;;;;;;2.20;1.10;;;11.20;99.90;;;;;;5036244;28;20033;-55
2023/11/07 10:00:58;;;;;;;3.22;1.40;;;11.30;99.90;;;;;;5038068;28;20053;-57
2023/11/07 10:03:24;;;;;;;2.78;1.23;;;11.30;99.90;;;;;;5050201;28;20485;-58
2023/11/07 10:05:51;;;;;;;2.35;1.30;;;11.30;99.90;;;;;;5019606;28;20040;-56
2023/11/07 10:08:22;;;;;;;4.53;1.77;;;11.40;99.90;;;;;;5014817;28;20034;-54
2023/11/07 10:11:07;;;;;;;1.13;0.95;;;11.40;99.90;;;;;;5027571;28;20500;-52
2023/11/07 10:13:33;;;;;;;1.25;1.15;;;11.50;99.90;;;;;;5033092;28;20080;-55
2023/11/07 10:16:07;;;;;;;3.20;1.00;;;11.60;99.90;;;;;;5023586;28;20021;-55
2023/11/07 10:18:47;;;;;;;2.15;1.02;;;11.60;99.90;;;;;;5018042;28;20470;-52
2023/11/07 10:21:14;;;;;;;2.55;1.20;;;11.70;99.90;;;;;;5027576;28;20018;-52
2023/11/07 10:23:40;;;;;;;4.20;1.42;;;11.80;99.90;;;;;;5031644;28;20444;-50
2023/11/07 10:26:15;;;;;;;1.58;1.48;;;11.90;99.90;;;;;;5033617;28;20097;-52
2023/11/07 10:28:41;;;;;;;3.28;1.35;;;12.10;99.90;;;;;;5019932;28;20095;-52
2023/11/07 10:31:23;;;;;;;4.85;1.20;;;12.30;99.90;;;;;;5014577;28;20030;-52
2023/11/07 10:33:49;;;;;;;3.33;1.00;;;12.40;99.90;;;;;;5021637;28;20107;-53
2023/11/07 10:36:15;;;;;;;4.30;0.98;;;12.50;99.90;;;;;;5016298;28;20520;-57
2023/11/07 10:38:40;;;;;;;3.85;1.00;;;12.40;99.90;;;;;;5018053;28;20108;-53
2023/11/07 10:41:06;;;;;;;6.03;1.20;;;12.40;99.90;;;;;;5022556;28;20030;-54
2023/11/07 10:43:36;;;;;;;3.38;2.05;;;12.30;99.90;;;;;;5033551;28;20022;-55
2023/11/07 10:46:09;;;;;;;4.45;1.17;;;12.20;99.90;;;;;;5033149;28;20534;-54
2023/11/07 10:48:39;;;;;;;1.25;0.80;;;12.30;99.90;;;;;;5032185;28;20025;-50
2023/11/07 10:51:15;;;;;;;4.95;1.20;;;12.20;99.90;;;;;;5026401;28;20116;-65
2023/11/07 10:53:42;;;;;;;4.60;1.17;;;12.20;99.90;;;;;;5032711;28;20037;-69
2023/11/07 10:56:10;;;;;;;15.00;2.72;;;12.20;99.90;;;;;;5023448;28;20099;-54
2023/11/07 10:58:54;;;;;;;2.70;0.85;;;12.30;99.90;;;;;;5023927;28;20088;-53
2023/11/07 11:01:20;;;;;;;0.77;0.77;;;12.30;99.90;;;;;;5016262;28;20385;-46
2023/11/07 11:03:51;;;;;;;1.67;1.00;;;12.40;99.90;;;;;;5027158;28;20025;-40
2023/11/07 11:06:23;;;;;;;5.22;1.20;;;12.30;99.90;;;;;;5024704;28;20044;-53
2023/11/07 11:08:57;;;;;;;1.98;0.70;;;12.40;99.90;;;;;;5031718;28;20068;-51
2023/11/07 11:11:24;;;;;;;2.05;0.88;;;12.50;99.90;;;;;;5033234;28;20029;-53
2023/11/07 11:13:53;;;;;;;5.13;0.85;;;12.50;99.90;;;;;;5032951;28;20474;-54
2023/11/07 11:16:21;;;;;;;1.38;0.85;;;12.50;99.90;;;;;;5032989;28;20021;-52
2023/11/07 11:18:57;;;;;;;1.73;0.88;;;12.50;99.90;;;;;;5032744;28;20022;-54
2023/11/07 11:21:38;;;;;;;4.25;0.88;;;12.50;99.90;;;;;;5031158;28;20028;-53
2023/11/07 11:24:24;;;;;;;6.32;1.15;;;12.50;99.90;;;;;;5033408;28;20512;-52
2023/11/07 11:27:03;;;;;;;2.47;1.10;;;12.50;99.90;;;;;;5032676;28;20021;-54
2023/11/07 11:29:29;;;;;;;5.20;1.13;;;12.50;99.90;;;;;;5028186;28;20516;-53
2023/11/07 11:31:56;;;;;;;3.83;1.10;;;12.50;99.90;;;;;;5023587;28;20036;-53
2023/11/07 11:34:25;;;;;;;5.47;1.02;;;12.50;99.90;;;;;;5029252;28;20042;-54
2023/11/07 11:36:59;;;;;;;8.02;1.58;;;12.60;99.90;;;;;;5026234;28;20532;-40
2023/11/07 11:39:31;;;;;;;5.43;0.98;;;12.60;99.90;;;;;;5032958;28;20449;-43
2023/11/07 11:41:58;;;;;;;4.55;1.15;;;12.60;99.90;;;;;;5032605;28;20064;-40
2023/11/07 11:44:24;;;;;;;2.63;1.25;;;12.50;99.90;;;;;;5032716;28;20033;-41
2023/11/07 11:46:51;;;;;;;2.38;1.05;;;12.50;99.90;;;;;;5031697;28;20045;-40
2023/11/07 11:49:18;;;;;;;1.13;0.70;;;12.60;99.90;;;;;;5032879;28;20448;-42
2023/11/07 11:51:48;;;;;;;2.90;1.00;;;12.70;99.90;;;;;;5031104;28;20026;-40
2023/11/07 11:54:24;;;;;;;3.05;0.75;;;12.70;99.90;;;;;;5032207;28;20022;-39
2023/11/07 11:56:50;;;;;;;2.70;1.10;;;12.60;99.90;;;;;;5032345;28;20040;-41
2023/11/07 11:59:28;;;;;;;5.00;0.73;;;12.70;99.90;;;;;;5031050;28;20017;-42
2023/11/07 12:01:56;;;;;;;7.47;0.93;;;12.70;99.90;;;;;;5032101;28;20372;-41
2023/11/07 12:04:48;;;;;;;2.15;0.88;;;12.80;99.90;;;;;;5032257;28;20032;-40
2023/11/07 12:07:14;;;;;;;3.40;0.90;;;12.90;99.90;;;;;;5032448;28;20026;-42
2023/11/07 12:09:55;;;;;;;2.70;1.13;;;12.90;99.90;;;;;;5032506;28;20080;-42
2023/11/07 12:12:21;;;;;;;2.83;0.63;;;12.90;99.90;;;;;;5036246;28;20531;-41
2023/11/07 12:14:58;;;;;;;3.55;1.25;;;12.90;99.90;;;;;;5036366;28;20025;-40
2023/11/07 12:17:26;;;;;;;1.55;0.82;;;12.90;99.90;;;;;;5036706;28;20559;-42
2023/11/07 12:20:06;;;;;;;;;;;12.90;99.90;;;;;;5036776;28;20022;-40
2023/11/07 12:22:36;;;;;;;3.88;1.17;;;12.90;99.90;;;;;;5036630;28;19932;-39
2023/11/07 12:25:19;;;;;;;4.28;0.65;;;12.90;99.90;;;;;;5036513;28;20381;-40
2023/11/07 12:28:05;;;;;;;2.20;0.52;;;13.00;99.90;;;;;;5040849;28;20037;-40
2023/11/07 12:30:34;;;;;;;1.08;0.60;;;12.90;99.90;;;;;;5036539;28;20028;-40
2023/11/07 12:33:11;;;;;;;2.10;0.73;;;12.90;99.90;;;;;;5036100;28;20021;-41
2023/11/07 12:35:38;;;;;;;4.43;0.95;;;12.90;99.90;;;;;;5036489;28;20406;-43
2023/11/07 12:38:07;;;;;;;7.35;0.98;;;12.80;99.90;;;;;;5036042;28;20517;-41
2023/11/07 12:40:33;;;;;;;4.35;1.00;;;12.80;99.90;;;;;;5036204;28;20018;-41
2023/11/07 12:42:59;;;;;;;7.18;1.35;;;13.00;99.90;;;;;;5034677;28;20041;-40
2023/11/07 12:45:26;;;;;;;2.13;0.90;;;13.00;99.90;;;;;;5035733;28;20531;-41
2023/11/07 12:47:59;;;;;;;2.00;0.77;;;13.00;99.90;;;;;;5036034;28;20021;-40
2023/11/07 12:53:20;;;;;;;4.10;1.00;;;13.00;99.90;;;;;;5035795;28;20095;-38
2023/11/07 12:55:52;;;;;;;2.10;1.08;;;13.00;99.90;;;;;;5034945;28;20025;-47